createdAt,value
2022-08-09T00:01:16.429Z,20.10
2022-08-09T00:07:07.860Z,20.04
2022-08-09T00:12:57.530Z,20.02
2022-08-09T00:18:45.067Z,19.94
2022-08-09T00:24:32.309Z,19.76
2022-08-09T00:30:25.956Z,19.73
2022-08-09T00:36:13.742Z,19.61
2022-08-09T00:44:13.796Z,19.51
2022-08-09T00:48:08.177Z,19.44
2022-08-09T00:54:02.745Z,19.35
2022-08-09T00:59:52.468Z,19.42
2022-08-09T01:06:18.114Z,19.35
2022-08-09T01:12:15.321Z,19.34
2022-08-09T01:18:14.219Z,19.27
2022-08-09T01:24:09.856Z,19.16
2022-08-09T01:30:02.466Z,18.97
2022-08-09T01:35:52.673Z,18.93
2022-08-09T01:41:53.381Z,19.01
2022-08-09T01:47:44.820Z,19.01
2022-08-09T01:53:41.348Z,19.01
2022-08-09T01:59:32.477Z,18.94
2022-08-09T02:05:35.545Z,18.82
2022-08-09T02:11:42.638Z,18.79
2022-08-09T02:17:59.933Z,18.73
2022-08-09T02:23:49.514Z,18.76
2022-08-09T02:29:44.110Z,18.75
2022-08-09T02:36:01.809Z,18.70
2022-08-09T02:41:46.223Z,18.62
2022-08-09T02:47:57.559Z,18.50
2022-08-09T02:53:59.561Z,18.52
2022-08-09T03:00:21.320Z,18.48
2022-08-09T03:05:59.287Z,18.29
2022-08-09T03:12:06.320Z,18.18
2022-08-09T03:17:58.910Z,18.01
2022-08-09T03:23:58.615Z,17.94
2022-08-09T03:29:58.002Z,17.87
2022-08-09T03:36:13.091Z,17.78
2022-08-09T03:42:06.441Z,17.76
2022-08-09T03:47:53.875Z,17.67
2022-08-09T03:53:42.942Z,17.62
2022-08-09T03:59:43.291Z,17.53
2022-08-09T04:05:40.452Z,17.59
2022-08-09T04:11:39.547Z,17.44
2022-08-09T04:17:30.275Z,17.25
2022-08-09T04:23:24.532Z,17.22
2022-08-09T04:29:15.640Z,17.32
2022-08-09T04:35:02.666Z,17.38
2022-08-09T04:40:56.025Z,17.33
2022-08-09T04:46:58.454Z,17.32
2022-08-09T04:52:47.258Z,17.35
2022-08-09T04:58:35.093Z,17.37
2022-08-09T05:04:22.238Z,17.35
2022-08-09T05:10:17.691Z,17.42
2022-08-09T05:16:04.680Z,17.49
2022-08-09T05:21:52.432Z,17.52
2022-08-09T05:27:46.301Z,19.02
2022-08-09T05:33:34.850Z,20.55
2022-08-09T05:39:36.080Z,21.67
2022-08-09T05:45:52.792Z,22.77
2022-08-09T05:51:42.601Z,22.88
2022-08-09T05:57:55.587Z,21.29
2022-08-09T06:03:44.080Z,19.95
2022-08-09T06:09:54.880Z,19.76
2022-08-09T06:15:52.361Z,19.25
2022-08-09T06:21:50.406Z,19.28
2022-08-09T06:27:51.510Z,19.25
2022-08-09T06:33:40.879Z,19.20
2022-08-09T06:39:48.979Z,18.99
2022-08-09T06:46:05.973Z,18.77
2022-08-09T06:51:45.899Z,18.76
2022-08-09T06:58:01.626Z,18.81
2022-08-09T07:04:00.752Z,18.74
2022-08-09T07:09:57.282Z,18.82
2022-08-09T07:16:42.790Z,18.94
2022-08-09T07:22:34.867Z,18.87
2022-08-09T07:28:29.637Z,18.99
2022-08-09T07:34:19.395Z,19.04
2022-08-09T07:40:08.597Z,19.23
2022-08-09T07:46:02.966Z,19.62
2022-08-09T07:52:04.715Z,19.78
2022-08-09T07:57:53.412Z,20.37
2022-08-09T08:03:45.669Z,20.94
2022-08-09T08:09:35.513Z,21.65
2022-08-09T08:15:35.474Z,22.38
2022-08-09T08:21:30.406Z,22.04
2022-08-09T08:27:18.714Z,22.28
2022-08-09T08:33:06.137Z,23.49
2022-08-09T08:39:00.210Z,23.85
2022-08-09T08:44:52.094Z,23.39
2022-08-09T08:50:39.761Z,23.88
2022-08-09T08:56:44.130Z,24.21
2022-08-09T09:02:36.290Z,24.70
2022-08-09T09:08:30.537Z,24.86
2022-08-09T09:14:25.977Z,25.42
2022-08-09T09:20:15.367Z,25.13
2022-08-09T09:26:12.279Z,25.60
2022-08-09T09:32:05.852Z,24.56
2022-08-09T09:38:04.047Z,25.20
2022-08-09T09:44:12.079Z,26.12
2022-08-09T09:50:14.130Z,26.50
2022-08-09T09:56:07.562Z,26.77
2022-08-09T10:02:07.309Z,26.38
2022-08-09T10:08:28.079Z,26.61
2022-08-09T10:14:27.642Z,26.58
2022-08-09T10:20:27.839Z,26.26
2022-08-09T10:26:22.097Z,26.70
2022-08-09T10:32:38.074Z,27.29
2022-08-09T10:38:43.191Z,26.07
2022-08-09T10:44:40.733Z,26.76
2022-08-09T10:51:02.032Z,26.51
2022-08-09T10:57:22.188Z,26.49
2022-08-09T11:03:51.838Z,26.75
2022-08-09T11:09:47.766Z,27.05
2022-08-09T11:16:04.406Z,26.96
2022-08-09T11:21:57.102Z,26.94
2022-08-09T11:28:09.297Z,27.49
2022-08-09T11:34:10.939Z,27.09
2022-08-09T11:40:08.347Z,27.40
2022-08-09T11:46:06.133Z,27.30
2022-08-09T11:53:15.315Z,27.82
2022-08-09T11:58:48.132Z,27.40
2022-08-09T12:04:48.195Z,27.45
2022-08-09T12:10:59.384Z,27.81
2022-08-09T12:16:49.905Z,27.53
2022-08-09T12:22:40.566Z,27.06
2022-08-09T12:29:11.582Z,27.39
2022-08-09T12:34:38.276Z,27.46
2022-08-09T12:40:30.513Z,27.07
2022-08-09T12:46:18.335Z,27.54
2022-08-09T12:52:12.385Z,27.54
2022-08-09T12:58:27.532Z,27.24
2022-08-09T13:04:36.134Z,27.71
2022-08-09T13:10:27.473Z,27.43
2022-08-09T13:17:04.927Z,27.54
2022-08-09T13:24:17.266Z,27.58
2022-08-09T13:30:02.671Z,27.83
2022-08-09T13:36:24.338Z,27.47
2022-08-09T13:42:16.018Z,27.47
2022-08-09T13:48:03.306Z,27.74
2022-08-09T13:54:03.601Z,27.35
2022-08-09T13:59:58.913Z,27.41
2022-08-09T14:05:59.715Z,27.05
2022-08-09T14:11:53.863Z,27.15
2022-08-09T14:18:18.895Z,27.20
2022-08-09T14:24:18.371Z,27.44
2022-08-09T14:30:36.568Z,27.56
2022-08-09T14:36:46.361Z,27.37
2022-08-09T14:42:43.525Z,27.21
2022-08-09T14:48:34.568Z,27.28
2022-08-09T14:54:22.095Z,27.13
2022-08-09T15:00:12.280Z,27.21
2022-08-09T15:06:01.700Z,27.08
2022-08-09T15:11:51.618Z,27.26
2022-08-09T15:17:41.877Z,27.17
2022-08-09T15:24:03.298Z,27.40
2022-08-09T15:30:59.132Z,27.40
2022-08-09T15:36:12.805Z,27.12
2022-08-09T15:42:02.058Z,27.06
2022-08-09T15:48:28.532Z,27.17
2022-08-09T15:54:33.635Z,26.99
2022-08-09T16:00:34.361Z,27.14
2022-08-09T16:06:34.999Z,26.54
2022-08-09T16:12:26.932Z,26.78
2022-08-09T16:18:18.240Z,26.85
2022-08-09T16:24:08.888Z,26.71
2022-08-09T16:30:15.070Z,26.67
2022-08-09T16:36:13.106Z,26.41
2022-08-09T16:42:04.936Z,26.33
2022-08-09T16:48:39.806Z,26.12
2022-08-09T16:54:27.830Z,25.94
2022-08-09T17:00:16.119Z,25.87
2022-08-09T17:06:28.220Z,25.86
2022-08-09T17:12:11.739Z,25.78
2022-08-09T17:18:00.719Z,25.50
2022-08-09T17:24:27.972Z,25.26
2022-08-09T17:29:54.919Z,25.22
2022-08-09T17:35:43.578Z,25.23
2022-08-09T17:41:47.982Z,25.07
2022-08-09T17:47:49.881Z,24.91
2022-08-09T17:53:48.125Z,24.71
2022-08-09T17:59:39.625Z,24.55
2022-08-09T18:05:38.770Z,24.46
2022-08-09T18:12:05.765Z,24.55
2022-08-09T18:18:02.521Z,24.10
2022-08-09T18:24:10.339Z,23.88
2022-08-09T18:30:38.265Z,23.89
2022-08-09T18:36:36.449Z,23.37
2022-08-09T18:42:29.166Z,23.31
2022-08-09T18:48:30.140Z,23.13
2022-08-09T18:54:28.446Z,22.57
2022-08-09T19:00:20.684Z,22.58
2022-08-09T19:06:17.443Z,22.49
2022-08-09T19:12:09.316Z,22.17
2022-08-09T19:18:05.405Z,22.11
2022-08-09T19:24:31.528Z,22.00
2022-08-09T19:30:21.368Z,21.96
2022-08-09T19:36:11.866Z,21.74
2022-08-09T19:42:00.348Z,21.70
2022-08-09T19:47:49.108Z,21.54
2022-08-09T19:53:37.241Z,21.59
2022-08-09T19:59:57.357Z,21.32
2022-08-09T20:05:46.274Z,21.22
2022-08-09T20:11:45.283Z,21.25
2022-08-09T20:17:48.220Z,21.11
2022-08-09T20:23:39.116Z,21.06
2022-08-09T20:29:32.657Z,21.22
2022-08-09T20:35:25.138Z,21.21
2022-08-09T20:41:31.985Z,20.78
2022-08-09T20:47:48.522Z,20.72
2022-08-09T21:02:56.574Z,20.67
2022-08-09T21:08:07.168Z,20.38
2022-08-09T21:14:06.330Z,20.54
2022-08-09T21:20:04.296Z,20.28
2022-08-09T21:26:15.657Z,20.30
2022-08-09T21:32:07.267Z,20.39
2022-08-09T21:38:05.400Z,20.38
2022-08-09T21:43:57.085Z,20.09
2022-08-09T21:49:53.078Z,20.10
2022-08-09T21:55:46.450Z,19.82
2022-08-09T22:01:59.001Z,19.80
2022-08-09T22:08:13.745Z,19.94
2022-08-09T22:14:22.011Z,20.08
2022-08-09T22:20:10.354Z,20.18
2022-08-09T22:26:23.339Z,20.17
2022-08-09T22:32:31.496Z,19.98
2022-08-09T22:38:23.512Z,19.78
2022-08-09T22:44:16.301Z,19.89
2022-08-09T22:50:07.725Z,19.88
2022-08-09T22:56:30.103Z,19.79
2022-08-09T23:02:14.988Z,19.65
2022-08-09T23:08:29.946Z,19.44
2022-08-09T23:14:17.726Z,19.43
2022-08-09T23:20:26.127Z,19.61
2022-08-09T23:26:12.995Z,19.61
2022-08-09T23:32:00.646Z,19.29
2022-08-09T23:37:55.255Z,19.28
2022-08-09T23:43:43.638Z,19.42
2022-08-09T23:49:34.080Z,19.37
2022-08-09T23:55:23.629Z,19.28
